Time;durP1;ratioP1;P1;durP2;ratioP2;P2;SDS_P1;SDS_P2;PMS_P1;PMS_P2;Temp;Humidity;BMP_temperature;BMP_pressure;BME280_temperature;BME280_humidity;BME280_pressure;Samples;Min_cycle;Max_cycle;Signal;HPM_P1;HPM_P2
2023/05/27 00:01:26;;;;;;;8.10;3.15;;;;;;;14.82;30.64;102380.09;5045967;28;20094;-68
2023/05/27 00:03:54;;;;;;;6.90;3.20;;;;;;;14.78;30.56;102396.00;5066525;28;20036;-68
2023/05/27 00:06:24;;;;;;;8.35;3.00;;;;;;;14.78;30.29;102396.00;5061973;28;20408;-68
2023/05/27 00:08:52;;;;;;;6.90;2.80;;;;;;;14.74;30.55;102386.22;5065027;28;20537;-68
2023/05/27 00:11:21;;;;;;;8.20;3.10;;;;;;;14.72;30.36;102379.97;5063778;28;20125;-68
2023/05/27 00:13:49;;;;;;;8.32;2.95;;;;;;;14.69;30.66;102380.19;5065977;28;20410;-69
2023/05/27 00:16:17;;;;;;;5.35;3.40;;;;;;;14.68;30.90;102375.72;5060691;28;20127;-68
2023/05/27 00:18:45;;;;;;;8.20;3.20;;;;;;;14.65;31.05;102382.34;5064501;28;20044;-68
2023/05/27 00:21:13;;;;;;;6.47;2.85;;;;;;;14.64;30.83;102368.69;5063869;28;20547;-69
2023/05/27 00:23:45;;;;;;;7.30;2.92;;;;;;;14.64;30.96;102374.19;5063993;28;20086;-68
2023/05/27 00:26:13;;;;;;;;;;;;;;;14.30;31.64;102374.09;5058994;28;20440;-68
2023/05/27 00:28:45;;;;;;;7.63;3.22;;;;;;;14.51;31.06;102373.44;5045177;28;19971;-68
2023/05/27 00:31:13;;;;;;;8.65;3.17;;;;;;;14.53;30.65;102368.66;5044056;28;20056;-67
2023/05/27 00:33:43;;;;;;;6.60;3.10;;;;;;;14.51;31.13;102371.56;5063548;28;20414;-68
2023/05/27 00:36:12;;;;;;;7.63;3.10;;;;;;;14.48;30.98;102368.16;5062520;28;20040;-68
2023/05/27 00:38:42;;;;;;;9.30;3.72;;;;;;;14.47;31.20;102370.03;5062299;28;20099;-69
2023/05/27 00:41:12;;;;;;;7.18;2.90;;;;;;;14.44;30.75;102367.50;5061425;28;20040;-68
2023/05/27 00:43:40;;;;;;;6.78;2.97;;;;;;;14.39;30.76;102367.88;5065974;28;20097;-69
2023/05/27 00:46:09;;;;;;;8.13;3.17;;;;;;;14.37;31.46;102367.09;5065072;28;20045;-69
2023/05/27 00:48:37;;;;;;;7.22;3.00;;;;;;;14.35;31.44;102369.09;5046730;28;20048;-68
2023/05/27 00:51:05;;;;;;;8.65;3.10;;;;;;;14.33;31.38;102373.00;5060256;28;20060;-68
2023/05/27 00:53:40;;;;;;;9.38;3.50;;;;;;;14.33;31.64;102378.50;5055853;28;20041;-68
2023/05/27 00:56:12;;;;;;;8.75;3.25;;;;;;;14.28;31.46;102375.22;5062065;28;20122;-68
2023/05/27 00:58:40;;;;;;;7.00;3.00;;;;;;;14.23;31.18;102375.59;5065266;28;20162;-69
2023/05/27 01:01:08;;;;;;;8.90;3.05;;;;;;;14.20;31.68;102364.81;5047514;28;20048;-69
2023/05/27 01:03:38;;;;;;;9.07;3.20;;;;;;;14.18;31.31;102372.34;5065977;28;20442;-68
2023/05/27 01:06:15;;;;;;;8.25;3.00;;;;;;;14.18;32.09;102368.72;5041366;28;20455;-68
2023/05/27 01:08:52;;;;;;;8.43;3.25;;;;;;;14.14;32.17;102368.06;5062694;28;20451;-69
2023/05/27 01:11:28;;;;;;;6.97;3.20;;;;;;;14.11;31.80;102368.28;5059920;28;20044;-69
2023/05/27 01:13:59;;;;;;;7.20;3.03;;;;;;;14.09;31.99;102373.06;5046968;28;20055;-68
2023/05/27 01:16:29;;;;;;;8.15;3.28;;;;;;;14.07;31.54;102374.19;5057127;28;20143;-68
2023/05/27 01:18:59;;;;;;;7.95;3.30;;;;;;;14.04;31.43;102375.28;5064100;28;20082;-67
2023/05/27 01:21:30;;;;;;;6.97;3.00;;;;;;;14.05;31.59;102371.53;5064789;28;20566;-68
2023/05/27 01:24:05;;;;;;;7.95;2.90;;;;;;;14.03;31.85;102368.03;5055472;28;20032;-69
2023/05/27 01:26:33;;;;;;;6.63;2.85;;;;;;;13.99;31.81;102363.78;5041717;28;20047;-68
2023/05/27 01:29:02;;;;;;;7.40;2.83;;;;;;;13.96;31.69;102351.13;5043391;28;20037;-68
2023/05/27 01:31:35;;;;;;;7.28;2.90;;;;;;;13.97;31.98;102354.75;5047028;28;20084;-70
2023/05/27 01:34:09;;;;;;;8.20;2.92;;;;;;;13.94;32.26;102355.84;5057074;28;20033;-68
2023/05/27 01:36:41;;;;;;;7.40;2.80;;;;;;;13.92;31.75;102351.50;5040539;28;20420;-69
2023/05/27 01:39:11;;;;;;;7.63;2.77;;;;;;;13.89;31.79;102347.09;5046250;28;20098;-67
2023/05/27 01:41:41;;;;;;;6.57;2.70;;;;;;;13.88;31.68;102356.34;5063875;28;20384;-68
2023/05/27 01:44:16;;;;;;;6.80;2.78;;;;;;;13.86;31.79;102341.81;5039357;28;20231;-68
2023/05/27 01:46:45;;;;;;;5.85;2.90;;;;;;;13.83;31.79;102354.97;5047187;28;20105;-69
2023/05/27 01:49:13;;;;;;;5.20;2.72;;;;;;;13.83;32.20;102355.84;5044857;28;20540;-68
2023/05/27 01:51:41;;;;;;;9.30;3.08;;;;;;;13.82;32.40;102355.94;5062283;28;20056;-68
2023/05/27 01:54:11;;;;;;;7.03;2.80;;;;;;;13.84;31.89;102356.72;5043273;28;20298;-68
2023/05/27 01:56:39;;;;;;;8.13;2.85;;;;;;;13.80;31.78;102352.44;5043154;28;20049;-68
2023/05/27 01:59:07;;;;;;;7.53;3.22;;;;;;;13.78;32.29;102348.91;5043859;28;20040;-68
2023/05/27 02:01:34;;;;;;;8.95;2.92;;;;;;;13.78;32.41;102357.16;5045704;28;20048;-68
2023/05/27 02:04:03;;;;;;;6.70;2.67;;;;;;;13.76;31.88;102357.31;5046441;28;20029;-69
2023/05/27 02:06:32;;;;;;;6.45;2.65;;;;;;;13.74;32.26;102359.31;5045634;28;20122;-68
2023/05/27 02:09:00;;;;;;;6.05;2.75;;;;;;;13.73;31.90;102359.41;5046130;28;20131;-68
2023/05/27 02:11:29;;;;;;;7.15;2.97;;;;;;;13.73;31.96;102351.16;5064266;28;20559;-68
2023/05/27 02:13:58;;;;;;;8.55;3.70;;;;;;;13.69;32.41;102346.91;5063304;28;20039;-69
2023/05/27 02:16:28;;;;;;;5.40;2.78;;;;;;;13.68;31.91;102359.78;5045443;28;20045;-68
2023/05/27 02:18:56;;;;;;;5.40;2.60;;;;;;;13.66;32.42;102352.63;5045026;28;20048;-69
2023/05/27 02:21:25;;;;;;;8.45;3.20;;;;;;;13.63;32.23;102351.88;5045463;28;20523;-68
2023/05/27 02:23:53;;;;;;;6.97;2.75;;;;;;;13.62;32.58;102360.22;5060251;28;20040;-69
2023/05/27 02:26:21;;;;;;;7.60;3.15;;;;;;;13.59;32.30;102355.88;5035613;28;20049;-69
2023/05/27 02:28:51;;;;;;;6.57;2.63;;;;;;;13.59;32.72;102355.88;5060138;28;20063;-68
2023/05/27 02:31:19;;;;;;;6.38;2.50;;;;;;;13.55;32.42;102350.66;5041357;28;20056;-69
2023/05/27 02:33:47;;;;;;;6.43;3.00;;;;;;;13.52;32.17;102351.81;5045486;28;20047;-68
2023/05/27 02:36:15;;;;;;;7.72;2.53;;;;;;;13.51;32.20;102350.03;5043893;28;20056;-68
2023/05/27 02:38:44;;;;;;;6.10;2.70;;;;;;;13.49;32.93;102345.66;5043097;28;20052;-67
2023/05/27 02:41:12;;;;;;;6.90;3.20;;;;;;;13.46;32.43;102349.50;5062688;28;20079;-68
2023/05/27 02:43:40;;;;;;;6.78;3.33;;;;;;;13.44;32.56;102354.25;5062747;28;20045;-67
2023/05/27 02:46:10;;;;;;;6.97;3.20;;;;;;;13.43;33.01;102343.38;5042392;28;20040;-67
2023/05/27 02:48:38;;;;;;;6.15;2.90;;;;;;;13.39;32.58;102352.84;5059935;28;20515;-67
2023/05/27 02:51:06;;;;;;;7.25;3.00;;;;;;;13.37;32.68;102347.44;5045272;28;20120;-68
2023/05/27 02:53:34;;;;;;;5.85;2.78;;;;;;;13.34;32.68;102347.69;5041657;28;20037;-68
2023/05/27 02:56:02;;;;;;;5.97;2.78;;;;;;;13.32;32.67;102341.44;5043212;28;20438;-67
2023/05/27 02:58:30;;;;;;;6.07;2.83;;;;;;;13.31;33.13;102347.03;5063759;28;20515;-67
2023/05/27 03:00:57;;;;;;;6.15;2.97;;;;;;;13.29;33.02;102351.75;5045293;28;20053;-67
2023/05/27 03:03:27;;;;;;;7.70;3.00;;;;;;;13.30;33.12;102356.28;5067777;28;20099;-68
2023/05/27 03:05:56;;;;;;;6.40;3.05;;;;;;;13.26;32.62;102352.91;5066030;28;20339;-68
2023/05/27 03:08:23;;;;;;;7.80;3.30;;;;;;;13.24;32.70;102343.88;5068894;28;20056;-68
2023/05/27 03:10:51;;;;;;;7.85;3.30;;;;;;;13.22;32.96;102345.84;5066703;28;20044;-68
2023/05/27 03:13:19;;;;;;;7.80;3.22;;;;;;;13.21;33.06;102341.34;5067374;28;20083;-68
2023/05/27 03:15:48;;;;;;;8.88;3.60;;;;;;;13.18;32.89;102341.59;5045282;28;20052;-67
2023/05/27 03:18:17;;;;;;;7.18;3.08;;;;;;;13.16;32.71;102340.84;5068347;28;20463;-67
2023/05/27 03:20:46;;;;;;;6.85;3.08;;;;;;;13.16;33.42;102335.34;5047309;28;20068;-67
2023/05/27 03:23:14;;;;;;;10.70;3.97;;;;;;;13.12;33.07;102333.78;5048467;28;20060;-67
2023/05/27 03:25:42;;;;;;;7.03;2.97;;;;;;;13.10;33.33;102336.69;5038195;28;20464;-67
2023/05/27 03:28:10;;;;;;;9.38;3.50;;;;;;;13.09;33.38;102334.03;5042769;28;20056;-66
2023/05/27 03:30:39;;;;;;;7.63;3.08;;;;;;;13.08;33.02;102335.03;5046735;28;20102;-67
2023/05/27 03:33:08;;;;;;;7.25;3.60;;;;;;;13.07;33.51;102344.25;5049059;28;20131;-68
2023/05/27 03:35:38;;;;;;;7.18;3.08;;;;;;;13.05;33.06;102329.75;5045763;28;20076;-66
2023/05/27 03:38:07;;;;;;;7.38;3.20;;;;;;;13.05;33.58;102335.25;5049997;28;20079;-69
2023/05/27 03:40:35;;;;;;;7.63;3.42;;;;;;;13.01;33.07;102331.00;5046118;28;20048;-67
2023/05/27 03:43:07;;;;;;;7.75;3.15;;;;;;;12.97;33.72;102332.19;5044700;28;20044;-67
2023/05/27 03:45:35;;;;;;;6.00;2.83;;;;;;;12.96;33.53;102331.31;5046942;28;20044;-66
2023/05/27 03:48:03;;;;;;;7.85;3.22;;;;;;;12.94;33.69;102327.81;5049601;28;20035;-68
2023/05/27 03:50:32;;;;;;;9.50;3.85;;;;;;;12.93;34.04;102322.44;5063172;28;20052;-68
2023/05/27 03:53:02;;;;;;;8.63;3.60;;;;;;;12.88;33.62;102320.91;5046772;28;20037;-69
2023/05/27 03:55:31;;;;;;;7.88;3.63;;;;;;;12.86;33.57;102322.91;5037685;28;20131;-68
2023/05/27 03:58:01;;;;;;;9.48;3.63;;;;;;;12.81;33.73;102319.59;5044233;28;20060;-67
2023/05/27 04:00:30;;;;;;;6.90;3.35;;;;;;;12.77;34.12;102323.59;5043266;28;20055;-68
2023/05/27 04:02:58;;;;;;;7.47;3.30;;;;;;;12.73;33.85;102322.03;5064255;28;20045;-67
2023/05/27 04:05:27;;;;;;;6.78;3.67;;;;;;;12.72;34.35;102322.16;5047524;28;20119;-68
2023/05/27 04:07:56;;;;;;;7.43;3.38;;;;;;;12.71;34.01;102325.88;5066105;28;20045;-68
2023/05/27 04:10:23;;;;;;;7.55;3.58;;;;;;;12.66;34.33;102320.75;5046734;28;20106;-68
2023/05/27 04:12:53;;;;;;;6.10;2.67;;;;;;;12.66;34.37;102323.47;5061398;28;20044;-67
2023/05/27 04:15:21;;;;;;;8.90;3.65;;;;;;;12.62;34.34;102315.59;5061387;28;20419;-68
2023/05/27 04:17:51;;;;;;;7.35;3.47;;;;;;;12.60;34.54;102317.53;5047523;28;20522;-68
2023/05/27 04:20:19;;;;;;;8.25;3.28;;;;;;;12.56;34.15;102319.63;5064128;28;20040;-67
2023/05/27 04:22:52;;;;;;;7.40;3.63;;;;;;;12.54;34.34;102324.38;5047396;28;20051;-67
2023/05/27 04:25:21;;;;;;;7.55;3.92;;;;;;;12.53;34.82;102319.84;5056056;28;20529;-68
2023/05/27 04:28:11;;;;;;;8.55;3.53;;;;;;;12.51;34.58;102324.56;5039629;28;20033;-68
2023/05/27 04:30:42;;;;;;;8.52;3.60;;;;;;;12.48;34.81;102328.41;5039919;28;20060;-68
2023/05/27 04:33:19;;;;;;;7.85;3.20;;;;;;;12.47;35.04;102321.16;5043602;28;20056;-67
2023/05/27 04:35:48;;;;;;;8.02;4.13;;;;;;;12.45;35.11;102327.78;5045379;28;20051;-68
2023/05/27 04:38:17;;;;;;;8.23;3.25;;;;;;;12.46;35.03;102321.25;5066772;28;20584;-67
2023/05/27 04:40:54;;;;;;;7.88;3.50;;;;;;;12.45;35.20;102325.03;5044279;28;20462;-67
2023/05/27 04:43:50;;;;;;;7.55;3.65;;;;;;;12.45;35.04;102327.78;5029158;28;20139;-69
2023/05/27 04:46:21;;;;;;;6.87;3.47;;;;;;;12.42;35.00;102326.13;5041022;28;20064;-69
2023/05/27 04:48:50;;;;;;;8.82;3.35;;;;;;;12.45;35.33;102322.28;5047742;28;20295;-68
2023/05/27 04:51:18;;;;;;;7.45;3.47;;;;;;;12.48;35.16;102324.78;5036331;28;20060;-68
2023/05/27 04:53:49;;;;;;;7.30;3.15;;;;;;;12.50;35.36;102328.31;5063472;28;20044;-68
2023/05/27 04:56:19;;;;;;;6.95;3.60;;;;;;;12.53;35.16;102325.34;5046296;28;20053;-67
2023/05/27 04:58:48;;;;;;;8.73;3.60;;;;;;;12.55;35.60;102323.34;5044482;28;20040;-69
2023/05/27 05:01:24;;;;;;;8.23;3.50;;;;;;;12.59;35.66;102326.75;5045750;28;20084;-69
2023/05/27 05:04:12;;;;;;;7.72;3.28;;;;;;;12.63;35.49;102331.94;5048216;28;20064;-66
2023/05/27 05:06:55;;;;;;;6.50;3.42;;;;;;;12.69;35.98;102328.75;5046040;28;20048;-68
2023/05/27 05:09:24;;;;;;;7.15;3.47;;;;;;;12.73;36.17;102329.41;5046758;28;20040;-67
2023/05/27 05:11:52;;;;;;;8.77;4.13;;;;;;;12.78;35.89;102325.34;5046743;28;20057;-68
2023/05/27 05:14:20;;;;;;;8.70;3.80;;;;;;;12.87;35.77;102329.28;5043624;28;20075;-67
2023/05/27 05:16:50;;;;;;;8.93;4.32;;;;;;;12.96;35.80;102328.56;5044259;28;20105;-68
2023/05/27 05:19:19;;;;;;;8.98;4.13;;;;;;;13.02;36.50;102324.50;5045972;28;20091;-68
2023/05/27 05:21:47;;;;;;;10.40;4.45;;;;;;;13.11;35.78;102323.81;5048675;28;20036;-68
2023/05/27 05:24:15;;;;;;;10.45;4.53;;;;;;;13.20;36.15;102326.72;5061080;28;20048;-68
2023/05/27 05:26:45;;;;;;;9.32;3.85;;;;;;;13.31;36.03;102325.91;5039604;28;20052;-68
2023/05/27 05:29:14;;;;;;;8.07;4.25;;;;;;;13.40;36.21;102319.72;5044547;28;20058;-68
2023/05/27 05:31:44;;;;;;;8.07;4.00;;;;;;;13.51;35.94;102322.53;5063618;28;20132;-69
2023/05/27 05:34:15;;;;;;;9.43;3.72;;;;;;;13.63;35.99;102318.84;5040642;28;20045;-68
2023/05/27 05:36:43;;;;;;;11.70;4.28;;;;;;;13.72;36.02;102313.63;5043704;28;20144;-67
2023/05/27 05:39:11;;;;;;;6.07;3.50;;;;;;;13.81;35.66;102310.16;5046543;28;20052;-68
2023/05/27 05:41:43;;;;;;;9.57;4.20;;;;;;;13.89;35.50;102310.44;5044327;28;20465;-68
2023/05/27 05:44:15;;;;;;;6.97;3.60;;;;;;;14.02;35.38;102315.88;5040803;28;20110;-67
2023/05/27 05:46:43;;;;;;;8.82;3.95;;;;;;;14.10;35.19;102308.75;5059628;28;20048;-67
2023/05/27 05:49:11;;;;;;;8.00;3.70;;;;;;;14.19;35.60;102313.50;5047074;28;20052;-67
2023/05/27 05:51:45;;;;;;;7.38;3.47;;;;;;;14.28;35.55;102310.00;5035289;28;20400;-67
2023/05/27 05:54:13;;;;;;;8.27;3.67;;;;;;;14.36;35.15;102312.13;5044186;28;20045;-68
2023/05/27 05:56:48;;;;;;;9.18;3.85;;;;;;;14.46;34.90;102315.03;5043967;28;20467;-68
2023/05/27 05:59:16;;;;;;;9.25;3.65;;;;;;;14.54;35.06;102307.94;5044930;28;20046;-68
2023/05/27 06:01:44;;;;;;;8.00;3.63;;;;;;;14.62;35.14;102310.94;5045838;28;20157;-68
2023/05/27 06:04:12;;;;;;;6.95;3.50;;;;;;;14.72;35.19;102316.56;5045494;28;20078;-67
2023/05/27 06:06:44;;;;;;;7.95;3.58;;;;;;;14.83;34.59;102322.09;5043345;28;20408;-68
2023/05/27 06:09:31;;;;;;;7.05;3.35;;;;;;;14.91;34.87;102316.81;5063904;28;20080;-68
2023/05/27 06:12:04;;;;;;;7.40;3.90;;;;;;;15.00;34.86;102316.06;5042721;28;20384;-67
2023/05/27 06:14:39;;;;;;;9.63;4.03;;;;;;;15.12;34.50;102315.00;5031386;28;20064;-67
2023/05/27 06:17:08;;;;;;;8.25;3.53;;;;;;;15.26;34.37;102315.75;5046076;28;20139;-69
2023/05/27 06:19:36;;;;;;;8.80;4.20;;;;;;;15.35;34.88;102306.69;5062184;28;20455;-68
2023/05/27 06:22:06;;;;;;;9.70;3.70;;;;;;;15.49;34.29;102307.28;5042753;28;20098;-67
2023/05/27 06:24:53;;;;;;;7.53;3.88;;;;;;;15.57;34.45;102309.41;5060361;28;20187;-67
2023/05/27 06:27:29;;;;;;;8.38;3.40;;;;;;;15.68;34.04;102303.81;5037938;28;20100;-68
2023/05/27 06:29:57;;;;;;;7.70;3.47;;;;;;;15.81;34.00;102306.38;5043739;28;20046;-67
2023/05/27 06:32:34;;;;;;;9.38;3.60;;;;;;;15.93;33.66;102301.66;5046077;28;20044;-68
2023/05/27 06:35:03;;;;;;;7.35;3.35;;;;;;;16.03;33.99;102299.84;5044491;28;20129;-68
2023/05/27 06:37:32;;;;;;;6.13;3.17;;;;;;;16.14;33.83;102297.91;5045746;28;20270;-68
2023/05/27 06:40:00;;;;;;;8.20;3.22;;;;;;;16.23;33.79;102296.25;5064708;28;20095;-68
2023/05/27 06:42:28;;;;;;;8.60;4.20;;;;;;;16.33;33.51;102296.31;5057400;28;20044;-67
2023/05/27 06:45:14;;;;;;;6.78;3.40;;;;;;;16.41;33.67;102294.59;5062930;28;20059;-68
2023/05/27 06:47:44;;;;;;;7.07;3.15;;;;;;;16.52;33.32;102290.84;5042044;28;20083;-67
2023/05/27 06:50:12;;;;;;;10.00;3.78;;;;;;;16.62;33.23;102286.25;5045239;28;20041;-68
2023/05/27 06:52:42;;;;;;;6.53;3.25;;;;;;;16.75;32.97;102283.22;5045209;28;20056;-57
2023/05/27 06:55:23;;;;;;;7.38;3.67;;;;;;;16.81;32.93;102278.03;5036837;28;20044;-55
2023/05/27 06:58:15;;;;;;;7.70;3.10;;;;;;;16.94;33.01;102275.00;5041814;28;20435;-58
2023/05/27 07:01:08;;;;;;;6.13;2.75;;;;;;;17.08;33.16;102273.72;5059412;28;20431;-58
2023/05/27 07:03:55;;;;;;;6.60;2.88;;;;;;;17.20;32.66;102273.47;5048707;28;20051;-55
2023/05/27 07:06:37;;;;;;;9.40;3.40;;;;;;;17.32;32.69;102271.44;5048846;28;20040;-57
2023/05/27 07:09:06;;;;;;;7.22;3.30;;;;;;;17.46;32.11;102267.38;5049324;28;20127;-57
2023/05/27 07:11:35;;;;;;;6.53;3.15;;;;;;;17.54;32.57;102264.75;5051035;28;20135;-61
2023/05/27 07:14:09;;;;;;;7.70;3.25;;;;;;;17.62;32.50;102257.47;5052032;28;20607;-62
2023/05/27 07:16:38;;;;;;;7.22;3.38;;;;;;;17.74;32.26;102258.22;5049323;28;20192;-61
2023/05/27 07:19:08;;;;;;;7.15;3.40;;;;;;;17.85;32.27;102260.81;5049417;28;20040;-62
2023/05/27 07:21:45;;;;;;;7.60;3.28;;;;;;;17.95;31.69;102270.00;5048755;28;20051;-62
2023/05/27 07:24:20;;;;;;;6.00;2.70;;;;;;;18.08;31.64;102259.47;5048410;28;20063;-61
2023/05/27 07:26:48;;;;;;;8.40;3.17;;;;;;;18.15;31.79;102255.06;5049141;28;20481;-61
2023/05/27 07:29:17;;;;;;;7.10;3.25;;;;;;;18.23;31.26;102259.84;5048749;28;20053;-62
2023/05/27 07:31:55;;;;;;;7.15;3.13;;;;;;;18.32;31.43;102255.28;5065944;28;20393;-62
2023/05/27 07:34:30;;;;;;;6.82;3.33;;;;;;;18.41;31.51;102254.38;5050870;28;20497;-65
2023/05/27 07:36:58;;;;;;;6.78;2.85;;;;;;;18.49;31.46;102252.63;5044463;28;20066;-61
2023/05/27 07:39:27;;;;;;;5.90;2.90;;;;;;;18.61;30.94;102247.78;5044593;28;20388;-62
2023/05/27 07:41:55;;;;;;;7.38;3.05;;;;;;;18.67;30.65;102251.81;5043910;28;20132;-70
2023/05/27 07:44:24;;;;;;;7.43;3.55;;;;;;;18.76;30.59;102256.44;5046923;28;20470;-62
2023/05/27 07:46:52;;;;;;;6.93;3.20;;;;;;;18.82;30.49;102248.38;5046279;28;20044;-65
2023/05/27 07:49:20;;;;;;;7.00;3.17;;;;;;;18.90;30.49;102247.59;5045905;28;20170;-62
2023/05/27 07:52:07;;;;;;;7.07;3.10;;;;;;;18.97;30.79;102250.63;5063814;28;20068;-62
2023/05/27 07:54:36;;;;;;;7.05;3.20;;;;;;;19.07;30.13;102234.78;5047292;28;20063;-66
2023/05/27 07:57:18;;;;;;;5.40;2.78;;;;;;;19.11;30.51;102239.88;5045067;28;20154;-69
2023/05/27 07:59:47;;;;;;;6.22;3.15;;;;;;;19.19;29.86;102236.31;5044332;28;20241;-69
2023/05/27 08:02:15;;;;;;;6.63;3.28;;;;;;;19.27;30.26;102228.97;5039244;28;20059;-68
2023/05/27 08:04:44;;;;;;;8.75;3.75;;;;;;;19.34;29.95;102226.44;5038482;28;20503;-68
2023/05/27 08:07:32;;;;;;;6.80;3.00;;;;;;;19.42;30.22;102228.41;5062578;28;20062;-69
2023/05/27 08:10:12;;;;;;;5.93;3.10;;;;;;;19.53;30.01;102217.06;5045174;28;20654;-68
2023/05/27 08:12:56;;;;;;;5.32;2.88;;;;;;;19.59;29.87;102214.50;5039294;28;20059;-69
2023/05/27 08:15:37;;;;;;;8.13;2.92;;;;;;;19.71;29.99;102217.88;5043750;28;20049;-68
2023/05/27 08:18:23;;;;;;;8.73;3.38;;;;;;;19.80;29.33;102210.50;5037507;28;20047;-68
2023/05/27 08:21:12;;;;;;;6.32;3.25;;;;;;;19.88;29.08;102202.22;5062985;28;20055;-69
2023/05/27 08:23:51;;;;;;;6.43;3.10;;;;;;;19.95;29.29;102195.88;5036541;28;20052;-68
2023/05/27 08:26:32;;;;;;;6.32;2.78;;;;;;;20.02;29.11;102197.00;5044714;28;20040;-69
2023/05/27 08:29:25;;;;;;;8.38;2.90;;;;;;;20.04;28.75;102196.78;5062152;28;20056;-69
2023/05/27 08:32:06;;;;;;;7.72;2.97;;;;;;;20.11;28.94;102195.13;5044041;28;20048;-69
2023/05/27 08:34:34;;;;;;;6.72;3.45;;;;;;;20.16;28.50;102189.94;5065053;28;20036;-69
2023/05/27 08:37:05;;;;;;;6.75;3.15;;;;;;;20.20;28.66;102188.56;5042700;28;20037;-69
2023/05/27 08:39:38;;;;;;;5.88;3.20;;;;;;;20.23;29.05;102174.34;5059901;28;20752;-68
2023/05/27 08:42:17;;;;;;;7.10;3.20;;;;;;;20.30;28.80;102169.84;5045904;28;20056;-70
2023/05/27 08:44:46;;;;;;;7.40;3.00;;;;;;;20.36;29.31;102177.53;5057491;28;20430;-69
2023/05/27 08:47:15;;;;;;;6.30;2.97;;;;;;;20.45;28.88;102174.78;5040982;28;20470;-68
2023/05/27 08:49:44;;;;;;;7.25;3.40;;;;;;;20.50;28.69;102170.47;5045446;28;20447;-69
2023/05/27 08:54:58;;;;;;;7.97;2.95;;;;;;;20.66;28.75;102166.88;5023345;28;20088;-72
2023/05/27 08:57:30;;;;;;;7.28;3.08;;;;;;;20.76;27.95;102162.94;5025070;28;20037;-72
2023/05/27 08:59:58;;;;;;;6.55;3.13;;;;;;;20.80;28.59;102152.31;5003306;28;20516;-73
2023/05/27 09:02:28;;;;;;;4.82;2.80;;;;;;;20.90;28.51;102157.72;5004645;28;20087;-72
2023/05/27 09:04:56;;;;;;;6.35;2.95;;;;;;;20.98;28.50;102150.28;5014928;28;20049;-73
2023/05/27 09:07:24;;;;;;;6.78;3.10;;;;;;;21.06;27.88;102149.41;5006685;28;20120;-72
2023/05/27 09:09:57;;;;;;;6.47;2.92;;;;;;;21.16;27.30;102138.97;5014685;28;20405;-72
2023/05/27 09:12:25;;;;;;;6.72;2.90;;;;;;;21.21;27.81;102138.44;5019176;28;20072;-73
2023/05/27 09:14:55;;;;;;;5.72;2.90;;;;;;;21.29;27.99;102135.69;5012547;28;20054;-72
2023/05/27 09:17:24;;;;;;;6.47;3.08;;;;;;;21.35;27.94;102126.66;5025008;28;20408;-73
2023/05/27 09:19:52;;;;;;;6.07;2.60;;;;;;;21.39;27.92;102131.69;5018408;28;20132;-72
2023/05/27 09:22:22;;;;;;;7.57;3.28;;;;;;;21.45;27.74;102119.84;5014538;28;20580;-72
2023/05/27 09:24:53;;;;;;;5.70;2.78;;;;;;;21.52;27.39;102125.56;5013595;28;20307;-72
2023/05/27 09:27:25;;;;;;;6.72;3.47;;;;;;;21.60;27.06;102121.94;5016231;28;20057;-73
2023/05/27 09:29:55;;;;;;;6.68;2.50;;;;;;;21.63;27.70;102122.44;5019313;28;20061;-73
2023/05/27 09:32:27;;;;;;;6.97;3.15;;;;;;;21.72;27.22;102117.72;5003002;28;20049;-71
2023/05/27 09:34:55;;;;;;;6.45;2.90;;;;;;;21.73;27.21;102123.13;5013774;28;20377;-72
2023/05/27 09:37:31;;;;;;;7.22;3.30;;;;;;;21.82;26.94;102119.28;5020469;28;20534;-73
2023/05/27 09:39:59;;;;;;;6.80;3.15;;;;;;;21.83;26.82;102112.66;4999522;28;20108;-72
2023/05/27 09:42:27;;;;;;;7.65;2.90;;;;;;;21.88;26.98;102117.69;5022243;28;20068;-73
2023/05/27 09:44:57;;;;;;;7.80;2.95;;;;;;;21.92;26.68;102107.09;5003254;28;20037;-72
2023/05/27 09:47:25;;;;;;;6.68;3.05;;;;;;;21.96;27.15;102102.88;5018540;28;20556;-73
2023/05/27 09:49:54;;;;;;;6.93;3.13;;;;;;;21.99;26.71;102094.16;4990494;28;20057;-71
2023/05/27 09:52:23;;;;;;;8.75;2.92;;;;;;;22.01;26.32;102095.75;5017634;28;20045;-72
2023/05/27 09:54:52;;;;;;;6.82;3.13;;;;;;;22.05;26.38;102096.22;5018307;28;20049;-72
2023/05/27 09:57:21;;;;;;;6.85;3.38;;;;;;;22.07;26.17;102094.13;5014688;28;20509;-72
2023/05/27 09:59:50;;;;;;;7.10;3.17;;;;;;;22.08;26.26;102091.19;5012300;28;20104;-73
2023/05/27 10:02:22;;;;;;;7.05;3.17;;;;;;;22.10;26.36;102089.06;4997175;28;20173;-72
2023/05/27 10:04:50;;;;;;;7.10;3.30;;;;;;;22.09;26.42;102095.72;5014941;28;20085;-73
2023/05/27 10:07:21;;;;;;;6.85;2.80;;;;;;;22.13;26.38;102094.28;5023073;28;20041;-72
2023/05/27 10:09:59;;;;;;;5.70;2.80;;;;;;;22.16;26.68;102087.47;5020925;28;20049;-71
2023/05/27 10:12:27;;;;;;;5.72;3.25;;;;;;;22.21;25.94;102077.50;5013592;28;20489;-72
2023/05/27 10:14:56;;;;;;;6.55;3.03;;;;;;;22.23;25.86;102074.53;5012865;28;20037;-71
2023/05/27 10:17:26;;;;;;;6.72;3.38;;;;;;;22.24;25.49;102077.16;5009493;28;20053;-71
2023/05/27 10:19:55;;;;;;;9.02;3.17;;;;;;;22.25;25.73;102072.44;5015442;28;20041;-71
2023/05/27 10:22:24;;;;;;;6.65;2.70;;;;;;;22.26;26.00;102065.81;5012347;28;20145;-72
2023/05/27 10:24:53;;;;;;;6.22;3.13;;;;;;;22.28;25.79;102064.56;5011020;28;20164;-72
2023/05/27 10:27:22;;;;;;;6.63;2.60;;;;;;;22.31;25.77;102057.78;5016543;28;20543;-72
2023/05/27 10:29:59;;;;;;;7.00;3.00;;;;;;;22.38;26.03;102066.25;5018158;28;20464;-71
2023/05/27 10:32:28;;;;;;;6.35;2.83;;;;;;;22.42;25.94;102053.69;5021728;28;20160;-71
2023/05/27 10:35:00;;;;;;;6.38;3.00;;;;;;;22.47;25.23;102042.84;5013170;28;20052;-72
2023/05/27 10:37:34;;;;;;;5.30;2.70;;;;;;;22.52;25.40;102049.59;5016730;28;20144;-71
2023/05/27 10:40:06;;;;;;;6.47;2.90;;;;;;;22.59;25.84;102041.41;4989560;28;20069;-71
2023/05/27 10:42:34;;;;;;;6.63;3.08;;;;;;;22.62;25.51;102039.09;4994928;28;20351;-72
2023/05/27 10:45:07;;;;;;;7.30;2.83;;;;;;;22.73;25.23;102039.75;5016640;28;20127;-71
2023/05/27 10:47:39;;;;;;;5.40;2.90;;;;;;;22.78;24.59;102031.66;5013616;28;20049;-72
2023/05/27 10:50:16;;;;;;;7.47;3.13;;;;;;;22.81;24.04;102025.72;5011871;28;20041;-72
2023/05/27 10:52:52;;;;;;;6.00;2.75;;;;;;;22.79;24.34;102025.91;5000931;28;20470;-72
2023/05/27 10:55:21;;;;;;;5.50;2.65;;;;;;;22.82;24.74;102019.97;5013991;28;20049;-72
2023/05/27 10:57:50;;;;;;;6.50;2.88;;;;;;;22.84;24.54;102017.81;5013642;28;20045;-72
2023/05/27 11:00:20;;;;;;;5.13;2.60;;;;;;;22.89;24.78;102009.78;5016806;28;20045;-71
2023/05/27 11:02:49;;;;;;;6.57;3.40;;;;;;;22.89;24.25;102011.69;5020201;28;20042;-72
2023/05/27 11:05:21;;;;;;;7.45;3.08;;;;;;;22.94;23.98;102009.19;5011523;28;20057;-71
2023/05/27 11:07:49;;;;;;;5.78;3.10;;;;;;;22.89;24.20;102009.78;5008797;28;20056;-72
2023/05/27 11:10:17;;;;;;;7.45;3.00;;;;;;;22.92;24.02;102008.53;5020268;28;20045;-72
2023/05/27 11:12:48;;;;;;;5.68;3.05;;;;;;;22.93;24.31;101996.28;5014401;28;20413;-72
2023/05/27 11:15:16;;;;;;;6.35;3.15;;;;;;;22.91;23.98;102001.22;5013764;28;20574;-73
2023/05/27 11:17:44;;;;;;;5.63;3.20;;;;;;;22.90;23.53;101997.56;5008623;28;20516;-73
2023/05/27 11:20:16;;;;;;;6.63;3.05;;;;;;;22.92;23.68;101998.22;5015410;28;20437;-72
2023/05/27 11:22:50;;;;;;;6.97;3.22;;;;;;;22.91;23.25;101990.03;5026836;28;20038;-73
2023/05/27 11:25:18;;;;;;;5.70;2.85;;;;;;;22.88;23.53;101987.63;5020158;28;20057;-73
2023/05/27 11:27:46;;;;;;;7.25;3.25;;;;;;;22.86;23.66;101979.44;5020824;28;20120;-73
2023/05/27 11:30:15;;;;;;;7.82;3.20;;;;;;;22.86;23.57;101976.63;5003397;28;20049;-73
2023/05/27 11:32:43;;;;;;;5.90;2.75;;;;;;;22.86;24.09;101971.06;5020054;28;20049;-73
2023/05/27 11:35:18;;;;;;;5.90;2.75;;;;;;;22.88;24.17;101957.78;5016774;28;20054;-73
2023/05/27 11:37:47;;;;;;;6.88;3.10;;;;;;;22.92;24.16;101963.88;5022820;28;20080;-73
2023/05/27 11:40:15;;;;;;;6.05;3.17;;;;;;;22.95;24.57;101957.88;5017603;28;20084;-72
2023/05/27 11:42:47;;;;;;;5.72;3.05;;;;;;;23.02;24.47;101954.16;5020691;28;20548;-73
2023/05/27 11:45:16;;;;;;;7.68;3.20;;;;;;;23.05;24.30;101960.41;5010128;28;20057;-73